Time;durP1;ratioP1;P1;durP2;ratioP2;P2;SDS_P1;SDS_P2;PMS_P1;PMS_P2;Temp;Humidity;BMP_temperature;BMP_pressure;BME280_temperature;BME280_humidity;BME280_pressure;Samples;Min_cycle;Max_cycle;Signal;HPM_P1;HPM_P2
2022/05/13 00:01:27;;;;;;;9.73;4.78;;;14.50;94.20;;;;;;12704880;23;20185;-77
2022/05/13 00:06:30;;;;;;;4.63;4.07;;;14.70;93.00;;;;;;12747696;23;20555;-77
2022/05/13 00:11:32;;;;;;;5.63;3.53;;;14.80;93.00;;;;;;12703990;23;20180;-78
2022/05/13 00:16:35;;;;;;;10.73;4.68;;;13.80;96.80;;;;;;12722618;23;20562;-78
2022/05/13 00:21:38;;;;;;;7.72;3.42;;;13.40;99.60;;;;;;12705135;23;20255;-78
2022/05/13 00:26:40;;;;;;;4.95;3.33;;;14.30;99.30;;;;;;12731013;23;20192;-78
2022/05/13 00:31:43;;;;;;;10.85;3.78;;;14.70;98.50;;;;;;12703986;23;20176;-78
2022/05/13 00:36:47;;;;;;;3.47;1.90;;;14.50;96.60;;;;;;12705522;23;20176;-78
2022/05/13 00:41:49;;;;;;;6.50;3.60;;;14.90;98.70;;;;;;12703010;23;20224;-78
2022/05/13 00:46:52;;;;;;;5.57;3.95;;;14.90;95.80;;;;;;12703946;23;20200;-77
2022/05/13 00:51:54;;;;;;;7.80;4.05;;;15.00;94.50;;;;;;12730635;23;20196;-78
2022/05/13 00:56:58;;;;;;;7.03;3.28;;;14.40;92.70;;;;;;12746596;23;20177;-78
2022/05/13 01:02:00;;;;;;;5.95;2.83;;;14.10;99.50;;;;;;12703601;23;20180;-78
2022/05/13 01:07:08;;;;;;;10.27;4.45;;;14.50;98.80;;;;;;12748166;23;20582;-78
2022/05/13 01:12:14;;;;;;;7.80;3.67;;;14.10;98.00;;;;;;12719013;23;20602;-78
2022/05/13 01:23:09;;;;;;;6.40;2.55;;;15.50;96.90;;;;;;12730332;23;20200;-78
2022/05/13 01:28:15;;;;;;;6.30;3.58;;;16.00;94.60;;;;;;12727085;23;20255;-78
2022/05/13 01:33:18;;;;;;;5.32;3.35;;;16.00;94.00;;;;;;12745880;23;20227;-78
2022/05/13 01:38:24;;;;;;;5.05;3.90;;;14.20;96.60;;;;;;12730083;23;20172;-78
2022/05/13 01:43:27;;;;;;;3.38;2.58;;;13.70;96.30;;;;;;12702452;23;20659;-78
2022/05/13 01:48:30;;;;;;;4.60;3.42;;;14.20;99.70;;;;;;12719850;23;20512;-77
2022/05/13 01:53:33;;;;;;;5.43;3.97;;;14.20;96.90;;;;;;12702673;23;20710;-78
2022/05/13 01:58:36;;;;;;;2.50;1.88;;;13.30;99.40;;;;;;12677723;23;20184;-78
2022/05/13 02:03:44;;;;;;;6.82;3.60;;;14.80;99.90;;;;;;12729966;23;20223;-78
2022/05/13 02:08:48;;;;;;;7.80;2.75;;;15.00;94.90;;;;;;12749952;23;20215;-78
2022/05/13 02:13:52;;;;;;;5.63;3.78;;;14.10;99.50;;;;;;12681485;23;20181;-78
2022/05/13 02:18:55;;;;;;;4.80;3.17;;;14.50;96.50;;;;;;12733035;23;20509;-78
2022/05/13 02:23:57;;;;;;;3.50;2.63;;;15.10;96.90;;;;;;12733208;23;20216;-78
2022/05/13 02:29:01;;;;;;;3.38;2.13;;;14.30;99.20;;;;;;12707204;23;20216;-78
2022/05/13 02:34:03;;;;;;;2.13;1.63;;;15.10;98.30;;;;;;12731933;23;20170;-78
2022/05/13 02:39:06;;;;;;;4.18;2.50;;;15.70;96.70;;;;;;12731209;23;20168;-77
2022/05/13 02:44:08;;;;;;;3.13;2.60;;;15.70;95.10;;;;;;12705826;23;20192;-78
2022/05/13 02:49:15;;;;;;;7.00;3.08;;;15.40;95.70;;;;;;12730896;23;20204;-77
2022/05/13 02:54:18;;;;;;;3.17;2.60;;;15.20;95.80;;;;;;12706710;23;20588;-78
2022/05/13 02:59:20;;;;;;;7.35;4.60;;;15.40;95.70;;;;;;12732494;23;20176;-78
2022/05/13 03:04:23;;;;;;;11.30;4.57;;;14.90;94.80;;;;;;12706111;23;20172;-78
2022/05/13 03:09:25;;;;;;;8.68;3.42;;;14.80;97.10;;;;;;12731709;23;20188;-78
2022/05/13 03:14:27;;;;;;;7.50;5.43;;;14.30;99.00;;;;;;12706376;23;20172;-78
2022/05/13 03:19:30;;;;;;;7.32;3.97;;;14.40;96.00;;;;;;12704292;23;20204;-77
2022/05/13 03:24:33;;;;;;;5.80;3.55;;;14.20;99.90;;;;;;12732235;23;20200;-78
2022/05/13 03:29:36;;;;;;;7.00;3.88;;;13.90;99.90;;;;;;12731466;23;20188;-78
2022/05/13 03:34:38;;;;;;;6.00;4.93;;;14.10;99.90;;;;;;12706094;23;20227;-78
2022/05/13 03:39:41;;;;;;;11.52;5.82;;;13.50;99.90;;;;;;12729521;23;20180;-78
2022/05/13 03:44:43;;;;;;;5.95;5.05;;;14.30;98.80;;;;;;12705049;23;20228;-78
2022/05/13 03:49:47;;;;;;;6.47;5.40;;;14.00;99.40;;;;;;12731178;23;20192;-78
2022/05/13 03:54:49;;;;;;;7.45;5.82;;;13.80;96.60;;;;;;12731363;23;20192;-78
2022/05/13 03:59:52;;;;;;;7.30;6.00;;;14.20;96.90;;;;;;12730449;23;20231;-78
2022/05/13 04:10:15;;;;;;;12.13;5.95;;;14.50;99.20;;;;;;12705538;23;20258;-77
2022/05/13 04:20:39;;;;;;;12.82;8.02;;;14.60;99.90;;;;;;12737246;23;20200;-78
2022/05/13 04:25:42;;;;;;;7.45;5.70;;;15.00;96.40;;;;;;12702437;23;20169;-78
2022/05/13 04:30:44;;;;;;;12.10;7.82;;;15.30;97.10;;;;;;12729897;23;20192;-78
2022/05/13 04:35:47;;;;;;;5.75;3.35;;;15.40;96.20;;;;;;12720438;23;20192;-78
2022/05/13 04:40:49;;;;;;;1.90;1.70;;;15.50;97.10;;;;;;12728429;23;20259;-78
2022/05/13 04:45:52;;;;;;;8.73;5.80;;;16.10;95.90;;;;;;12730078;23;20223;-77
2022/05/13 04:50:58;;;;;;;7.47;2.92;;;16.80;93.60;;;;;;12729730;23;20193;-78
2022/05/13 04:56:02;;;;;;;8.35;5.00;;;17.10;93.50;;;;;;12721694;23;20165;-78
2022/05/13 05:01:07;;;;;;;2.83;1.73;;;17.60;91.50;;;;;;12702472;23;20192;-78
2022/05/13 05:06:11;;;;;;;2.25;1.90;;;18.50;90.90;;;;;;12722254;23;20230;-78
2022/05/13 05:11:15;;;;;;;3.53;2.33;;;19.40;87.30;;;;;;12727994;23;20192;-78
2022/05/13 05:16:22;;;;;;;2.33;1.80;;;19.60;85.60;;;;;;12745969;23;20165;-78
2022/05/13 05:21:26;;;;;;;2.20;2.00;;;20.00;83.10;;;;;;12735354;23;20200;-78
2022/05/13 05:26:28;;;;;;;1.50;1.40;;;20.10;82.50;;;;;;12730253;23;20217;-78
2022/05/13 05:31:31;;;;;;;1.67;1.30;;;20.20;81.60;;;;;;12748362;23;20185;-79
2022/05/13 05:36:35;;;;;;;6.47;3.53;;;20.30;81.00;;;;;;12746961;23;20164;-78
2022/05/13 05:41:37;;;;;;;1.92;1.55;;;20.10;80.00;;;;;;12732297;23;20192;-78
2022/05/13 05:46:40;;;;;;;1.90;1.67;;;20.60;79.30;;;;;;12707326;23;20184;-77
2022/05/13 05:51:42;;;;;;;6.85;2.85;;;20.60;78.70;;;;;;12733456;23;20239;-78
2022/05/13 06:02:06;;;;;;;4.32;2.80;;;20.10;76.50;;;;;;12752431;23;20224;-78
2022/05/13 06:07:13;;;;;;;4.88;2.40;;;20.30;75.80;;;;;;12733754;23;20280;-78
2022/05/13 06:12:21;;;;;;;6.70;2.85;;;20.40;75.30;;;;;;12732975;23;20497;-77
2022/05/13 06:17:23;;;;;;;4.45;3.30;;;20.40;75.20;;;;;;12748752;23;20641;-77
2022/05/13 06:22:26;;;;;;;5.55;2.95;;;20.70;74.40;;;;;;12707260;23;20251;-77
2022/05/13 06:27:28;;;;;;;5.60;2.35;;;20.60;73.90;;;;;;12732649;23;20184;-77
2022/05/13 06:32:30;;;;;;;4.90;3.08;;;20.70;74.20;;;;;;12733452;23;20200;-77
2022/05/13 06:37:33;;;;;;;5.45;2.22;;;20.70;71.40;;;;;;12733563;23;20172;-77
2022/05/13 06:42:36;;;;;;;9.25;2.80;;;20.90;73.40;;;;;;12732607;23;20172;-77
2022/05/13 06:47:40;;;;;;;4.30;2.53;;;20.90;73.20;;;;;;12707527;23;20204;-78
2022/05/13 06:52:44;;;;;;;5.10;2.30;;;21.10;72.80;;;;;;12724569;23;20187;-77
2022/05/13 06:57:46;;;;;;;6.13;2.72;;;20.80;72.60;;;;;;12705102;23;20595;-78
2022/05/13 07:02:49;;;;;;;3.80;2.45;;;20.20;73.50;;;;;;12733205;23;20169;-78
2022/05/13 07:07:52;;;;;;;3.80;2.63;;;21.00;72.80;;;;;;12707193;23;20247;-77
2022/05/13 07:12:54;;;;;;;3.25;1.90;;;21.20;72.10;;;;;;12680492;23;20247;-77
2022/05/13 07:17:57;;;;;;;4.07;2.45;;;21.40;71.50;;;;;;12749465;23;20227;-77
2022/05/13 07:23:00;;;;;;;3.45;2.20;;;21.40;69.80;;;;;;12731530;23;20587;-77
2022/05/13 07:28:03;;;;;;;4.78;2.65;;;21.00;72.10;;;;;;12731717;23;20521;-78
2022/05/13 07:33:06;;;;;;;4.03;2.53;;;21.20;71.30;;;;;;12722762;23;20188;-77
2022/05/13 07:38:08;;;;;;;3.22;2.17;;;21.40;69.50;;;;;;12728057;23;20180;-77
2022/05/13 07:43:10;;;;;;;5.00;2.35;;;21.40;70.80;;;;;;12725559;23;20891;-77
2022/05/13 07:48:13;;;;;;;3.95;2.10;;;21.50;70.40;;;;;;12726399;23;20578;-76
2022/05/13 07:53:16;;;;;;;2.28;2.08;;;21.50;70.40;;;;;;12699916;23;20216;-77
2022/05/13 07:58:18;;;;;;;3.03;2.55;;;21.40;70.30;;;;;;12726644;23;20227;-76
2022/05/13 08:03:21;;;;;;;3.47;2.40;;;21.40;70.00;;;;;;12726143;23;20239;-76
2022/05/13 08:08:30;;;;;;;2.13;1.88;;;21.50;69.80;;;;;;12726847;23;20563;-77
2022/05/13 08:13:34;;;;;;;4.32;2.80;;;21.40;69.60;;;;;;12735647;23;20173;-76
2022/05/13 08:18:37;;;;;;;2.78;2.35;;;21.30;68.60;;;;;;12673242;23;20215;-76
2022/05/13 08:23:40;;;;;;;3.63;2.08;;;21.00;69.30;;;;;;12700089;23;20185;-76
2022/05/13 08:28:45;;;;;;;3.95;2.55;;;21.30;69.80;;;;;;12726986;23;20524;-77
2022/05/13 08:33:47;;;;;;;3.35;2.38;;;21.30;69.10;;;;;;12700073;23;20168;-76
2022/05/13 08:38:50;;;;;;;3.63;2.50;;;21.10;66.90;;;;;;12726506;23;20223;-76
2022/05/13 08:44:00;;;;;;;9.05;3.00;;;21.40;69.10;;;;;;12697281;23;20239;-77
2022/05/13 08:49:12;;;;;;;5.72;2.20;;;21.00;62.90;;;;;;12744916;23;20188;-77
2022/05/13 08:54:17;;;;;;;4.75;1.67;;;20.90;63.50;;;;;;12698711;23;20588;-77
2022/05/13 08:59:39;;;;;;;6.47;2.60;;;21.00;63.70;;;;;;12723972;23;20176;-77
2022/05/13 09:04:48;;;;;;;9.25;2.60;;;21.00;64.20;;;;;;12674114;23;20517;-78
2022/05/13 09:09:55;;;;;;;9.45;2.20;;;22.30;62.20;;;;;;12742867;23;20192;-77
2022/05/13 09:15:22;;;;;;;5.32;2.42;;;22.50;62.30;;;;;;12705536;23;20172;-77
2022/05/13 09:20:25;;;;;;;6.65;2.40;;;22.80;61.70;;;;;;12674381;23;20610;-78
2022/05/13 09:25:53;;;;;;;6.80;1.80;;;23.00;60.60;;;;;;12698990;23;20172;-78
2022/05/13 09:31:16;;;;;;;5.57;3.05;;;23.30;61.20;;;;;;12697698;23;20200;-77
2022/05/13 09:36:38;;;;;;;4.85;1.50;;;;;;;;;;12725472;23;20574;-78
2022/05/13 09:41:41;;;;;;;5.57;1.98;;;23.30;61.00;;;;;;12698216;23;20242;-77
2022/05/13 09:47:14;;;;;;;6.68;1.75;;;22.90;60.70;;;;;;12674348;23;20184;-77
2022/05/13 09:52:37;;;;;;;4.00;1.58;;;23.40;61.50;;;;;;12724752;23;20188;-77
2022/05/13 09:57:40;;;;;;;5.75;2.42;;;23.60;61.20;;;;;;12700247;23;20169;-78
2022/05/13 10:02:47;;;;;;;3.13;1.48;;;23.50;63.70;;;;;;12725215;23;20551;-77
2022/05/13 10:07:53;;;;;;;3.38;1.92;;;23.70;60.50;;;;;;12742903;23;20165;-78
2022/05/13 10:18:41;;;;;;;3.85;2.53;;;23.70;60.50;;;;;;12723978;23;20169;-77
2022/05/13 10:24:02;;;;;;;2.20;1.90;;;23.50;60.60;;;;;;12723794;23;20227;-77
2022/05/13 10:29:21;;;;;;;3.08;1.55;;;23.60;61.10;;;;;;12738457;23;20180;-77
2022/05/13 10:34:36;;;;;;;4.05;1.80;;;23.40;61.70;;;;;;12701021;23;20231;-77
2022/05/13 10:40:09;;;;;;;4.22;1.42;;;23.50;61.60;;;;;;12718962;23;20169;-77
2022/05/13 10:45:19;;;;;;;3.45;1.77;;;23.50;61.40;;;;;;12726744;23;20181;-77
2022/05/13 10:50:25;;;;;;;4.05;1.95;;;23.40;61.80;;;;;;12744486;23;20192;-78
2022/05/13 10:55:39;;;;;;;10.00;3.97;;;23.30;61.90;;;;;;12728272;23;20231;-78
2022/05/13 11:00:49;;;;;;;3.70;2.03;;;22.20;62.20;;;;;;12732080;23;20168;-78
2022/05/13 11:06:19;;;;;;;2.75;1.80;;;22.90;62.60;;;;;;12719401;23;20176;-77
2022/05/13 11:11:42;;;;;;;1.95;1.77;;;22.90;63.00;;;;;;12598009;23;20206;-78
2022/05/13 11:16:50;;;;;;;2.78;1.83;;;23.10;62.20;;;;;;12600349;23;20513;-77
2022/05/13 11:22:21;;;;;;;3.05;1.63;;;23.20;62.40;;;;;;12604229;23;20205;-77
2022/05/13 11:27:44;;;;;;;5.05;1.90;;;23.00;61.40;;;;;;12598315;23;20190;-78
2022/05/13 11:33:13;;;;;;;1.92;1.58;;;23.40;62.10;;;;;;12616355;23;20541;-77
2022/05/13 11:38:25;;;;;;;2.70;1.80;;;23.40;62.10;;;;;;12598782;23;20170;-77
2022/05/13 11:43:57;;;;;;;4.07;2.75;;;23.30;62.10;;;;;;12587164;23;20174;-77
2022/05/13 11:49:12;;;;;;;4.13;1.83;;;23.10;60.40;;;;;;12659042;23;20543;-77
2022/05/13 11:54:19;;;;;;;4.43;3.28;;;23.10;62.50;;;;;;12718645;23;20169;-78
2022/05/13 11:59:30;;;;;;;3.58;1.83;;;23.20;61.70;;;;;;12675995;23;20216;-77
2022/05/13 12:04:37;;;;;;;2.17;1.85;;;23.40;61.30;;;;;;12724694;23;20579;-79
2022/05/13 12:09:46;;;;;;;7.38;4.25;;;23.20;62.30;;;;;;12726278;23;20196;-78
2022/05/13 12:15:03;;;;;;;4.47;2.35;;;22.40;60.10;;;;;;12732247;23;20172;-77
2022/05/13 12:20:14;;;;;;;7.53;2.30;;;22.20;61.80;;;;;;12702378;23;20200;-78
2022/05/13 12:25:34;;;;;;;2.38;2.17;;;22.60;63.50;;;;;;12745695;23;20168;-78
2022/05/13 12:30:49;;;;;;;6.32;2.63;;;22.60;60.60;;;;;;12704108;23;20196;-77
2022/05/13 12:41:24;;;;;;;3.90;2.80;;;21.90;61.90;;;;;;12730874;23;20219;-78
2022/05/13 12:46:47;;;;;;;7.97;3.90;;;22.30;61.50;;;;;;12730980;23;20177;-78
2022/05/13 12:52:02;;;;;;;17.45;3.90;;;22.30;60.40;;;;;;12745701;23;20887;-77
2022/05/13 12:57:14;;;;;;;7.53;2.92;;;22.20;59.80;;;;;;12702498;23;20474;-77
2022/05/13 13:02:40;;;;;;;9.40;3.10;;;23.00;58.60;;;;;;12731284;23;20671;-77
2022/05/13 13:07:43;;;;;;;9.18;3.35;;;23.10;59.40;;;;;;12680212;23;20718;-77
2022/05/13 13:13:10;;;;;;;9.30;2.50;;;24.00;57.90;;;;;;12678658;23;20208;-77
2022/05/13 13:18:13;;;;;;;7.60;3.38;;;24.00;56.40;;;;;;12728821;23;20496;-76
2022/05/13 13:23:17;;;;;;;5.25;2.10;;;22.80;54.30;;;;;;12730421;23;20258;-76
2022/05/13 13:28:20;;;;;;;4.32;2.10;;;23.90;58.70;;;;;;12703754;23;20421;-76
2022/05/13 13:33:35;;;;;;;4.00;2.40;;;23.70;58.60;;;;;;12704819;23;20247;-77
2022/05/13 13:38:40;;;;;;;5.35;2.53;;;23.60;58.70;;;;;;12703276;23;20179;-77
2022/05/13 13:43:44;;;;;;;3.65;2.33;;;24.10;58.10;;;;;;12678442;23;20180;-77
2022/05/13 13:48:53;;;;;;;5.63;2.90;;;24.30;58.30;;;;;;12730285;23;20165;-77
2022/05/13 13:54:06;;;;;;;7.10;3.10;;;24.10;56.40;;;;;;12720776;23;20168;-77
2022/05/13 13:59:24;;;;;;;4.00;2.60;;;23.30;56.50;;;;;;12703185;23;20216;-77
2022/05/13 14:04:29;;;;;;;5.38;2.45;;;23.30;56.80;;;;;;12707572;23;20242;-78
2022/05/13 14:09:42;;;;;;;7.15;3.10;;;23.00;57.30;;;;;;12706887;23;20200;-78
2022/05/13 14:14:49;;;;;;;4.13;3.15;;;22.00;58.70;;;;;;12707037;23;20212;-78
2022/05/13 14:20:00;;;;;;;8.35;3.13;;;22.20;58.90;;;;;;12747780;23;20200;-78
2022/05/13 14:25:11;;;;;;;6.07;4.10;;;22.00;58.00;;;;;;12749729;23;20484;-78
2022/05/13 14:30:15;;;;;;;4.03;3.10;;;21.20;56.70;;;;;;12714079;23;20184;-78
2022/05/13 14:35:25;;;;;;;5.55;4.45;;;21.60;60.80;;;;;;12750038;23;20168;-78
2022/05/13 14:40:48;;;;;;;3.60;3.05;;;21.80;60.40;;;;;;12751258;23;20223;-78
2022/05/13 14:45:53;;;;;;;5.75;4.63;;;21.90;60.20;;;;;;12706617;23;20219;-78
2022/05/13 14:51:05;;;;;;;7.78;3.33;;;20.70;61.90;;;;;;12706534;23;20740;-78
2022/05/13 14:56:12;;;;;;;9.85;3.95;;;20.30;64.00;;;;;;12706315;23;20236;-78
2022/05/13 15:01:22;;;;;;;8.10;4.97;;;20.50;63.90;;;;;;12734942;23;20173;-76
2022/05/13 15:06:28;;;;;;;19.52;4.93;;;20.90;63.20;;;;;;12749307;23;20231;-76
2022/05/13 15:11:30;;;;;;;7.93;5.03;;;20.50;64.50;;;;;;12732239;23;20188;-76
2022/05/13 15:16:33;;;;;;;6.00;3.83;;;19.60;65.70;;;;;;12706365;23;20248;-76
2022/05/13 15:21:35;;;;;;;7.72;4.80;;;20.80;65.80;;;;;;12705675;23;20200;-76
2022/05/13 15:26:38;;;;;;;19.50;4.60;;;20.50;66.10;;;;;;12680905;23;20184;-76
2022/05/13 15:31:40;;;;;;;15.45;3.72;;;21.70;64.60;;;;;;12733283;23;20188;-75
2022/05/13 15:36:43;;;;;;;7.13;3.38;;;21.40;65.10;;;;;;12724085;23;20169;-76
2022/05/13 15:41:46;;;;;;;7.97;4.80;;;21.20;65.70;;;;;;12706099;23;20224;-77
2022/05/13 15:46:48;;;;;;;7.80;3.92;;;20.50;65.80;;;;;;12706237;23;20172;-77
2022/05/13 15:57:12;;;;;;;4.70;3.47;;;20.60;66.90;;;;;;12700199;23;20231;-77
2022/05/13 16:02:15;;;;;;;6.78;3.40;;;20.70;67.10;;;;;;12717923;23;20516;-77
2022/05/13 16:07:17;;;;;;;5.55;3.10;;;21.60;62.90;;;;;;12675665;23;20180;-76
2022/05/13 16:12:25;;;;;;;7.18;2.97;;;21.80;64.40;;;;;;12700278;23;20531;-77
2022/05/13 16:17:29;;;;;;;5.38;2.75;;;22.20;62.80;;;;;;12725246;23;20230;-77
2022/05/13 16:22:39;;;;;;;2.53;2.33;;;19.60;60.20;;;;;;12703594;23;20571;-77
2022/05/13 16:27:44;;;;;;;2.80;2.60;;;20.20;62.30;;;;;;12698971;23;20235;-77
2022/05/13 16:32:46;;;;;;;4.22;2.80;;;20.20;68.60;;;;;;12743858;23;20192;-78
2022/05/13 16:37:49;;;;;;;6.45;2.03;;;21.60;65.10;;;;;;12726389;23;20573;-78
2022/05/13 16:42:52;;;;;;;6.40;2.42;;;20.80;59.90;;;;;;12699730;23;20176;-77
2022/05/13 16:47:55;;;;;;;15.48;3.30;;;20.00;61.20;;;;;;12699149;23;20180;-78
2022/05/13 16:53:01;;;;;;;6.78;1.92;;;20.10;61.70;;;;;;12724513;23;20224;-77
2022/05/13 16:58:12;;;;;;;8.93;2.33;;;20.80;60.90;;;;;;12739053;23;20231;-77
2022/05/13 17:03:15;;;;;;;3.22;2.83;;;21.40;60.00;;;;;;12725901;23;20176;-77
2022/05/13 17:08:17;;;;;;;5.40;2.17;;;20.90;61.30;;;;;;12725296;23;20168;-77
2022/05/13 17:24:11;;;;;;;5.55;1.98;;;19.10;64.30;;;;;;12724509;23;20503;-77
2022/05/13 17:29:14;;;;;;;4.35;2.30;;;19.20;65.20;;;;;;12724383;23;20702;-77
2022/05/13 17:34:16;;;;;;;4.85;2.10;;;18.80;66.00;;;;;;12702840;23;20204;-78
2022/05/13 17:39:20;;;;;;;5.65;2.42;;;19.20;67.50;;;;;;12706759;23;20623;-77
2022/05/13 17:44:22;;;;;;;4.50;1.80;;;18.80;67.90;;;;;;12732083;23;20189;-76
2022/05/13 17:49:25;;;;;;;2.97;1.63;;;18.60;69.40;;;;;;12734233;23;20172;-77
2022/05/13 17:54:28;;;;;;;4.22;2.13;;;19.80;66.30;;;;;;12706907;23;20203;-76
2022/05/13 17:59:32;;;;;;;7.80;2.77;;;;;;;;;;12707402;23;20236;-76
2022/05/13 18:04:36;;;;;;;7.77;2.60;;;15.80;74.70;;;;;;12733071;23;20200;-77
2022/05/13 18:09:38;;;;;;;2.97;2.53;;;15.40;77.20;;;;;;12706898;23;20492;-78
2022/05/13 18:14:41;;;;;;;12.77;2.13;;;16.50;82.20;;;;;;12743216;23;20172;-76
2022/05/13 18:19:44;;;;;;;4.68;2.90;;;17.90;75.50;;;;;;12733161;23;20510;-78
2022/05/13 18:24:46;;;;;;;3.67;1.77;;;18.50;73.10;;;;;;12733451;23;20168;-77
2022/05/13 18:29:49;;;;;;;3.28;1.75;;;19.10;72.40;;;;;;12703844;23;20239;-77
2022/05/13 18:34:51;;;;;;;3.95;1.75;;;19.40;71.90;;;;;;12731594;23;20165;-76
2022/05/13 18:50:40;;;;;;;2.28;1.58;;;19.80;70.70;;;;;;12790202;23;20203;-87
2022/05/13 18:55:42;;;;;;;5.20;2.35;;;20.00;70.40;;;;;;12794167;23;20191;-86
2022/05/13 19:00:44;;;;;;;4.20;1.80;;;20.10;69.20;;;;;;12789509;23;20582;-86
2022/05/13 19:05:48;;;;;;;4.65;2.25;;;19.70;70.70;;;;;;12791715;23;20184;-86
2022/05/13 19:10:51;;;;;;;4.63;2.03;;;19.90;69.90;;;;;;12793228;23;20258;-86
2022/05/13 19:15:54;;;;;;;5.75;2.08;;;19.50;70.50;;;;;;12794601;23;20197;-86
2022/05/13 19:20:57;;;;;;;5.70;2.33;;;19.10;71.50;;;;;;12789676;23;20188;-86
2022/05/13 19:26:04;;;;;;;4.05;2.60;;;19.10;72.10;;;;;;12788586;23;20812;-86
2022/05/13 19:31:08;;;;;;;11.50;2.58;;;18.80;72.40;;;;;;12791563;23;20180;-86
2022/05/13 19:36:12;;;;;;;7.03;2.78;;;19.50;71.00;;;;;;12792286;23;20553;-86
2022/05/13 19:41:16;;;;;;;12.05;2.55;;;19.90;69.20;;;;;;12791909;23;20199;-86
2022/05/13 19:46:23;;;;;;;5.18;2.35;;;20.00;68.90;;;;;;12792080;23;20195;-87
2022/05/13 19:51:26;;;;;;;6.55;2.80;;;20.10;68.70;;;;;;12810018;23;20188;-87
2022/05/13 19:56:30;;;;;;;10.43;3.08;;;19.90;69.20;;;;;;12766489;23;20176;-87
2022/05/13 20:01:33;;;;;;;5.95;3.45;;;19.80;69.50;;;;;;12790063;23;20646;-87
2022/05/13 20:12:00;;;;;;;4.10;2.63;;;20.00;69.20;;;;;;12810528;23;20195;-87
2022/05/13 20:17:05;;;;;;;5.82;2.58;;;20.10;69.00;;;;;;12790419;23;20524;-87
2022/05/13 20:27:28;;;;;;;4.95;2.40;;;20.00;68.90;;;;;;12813441;23;20504;-87
2022/05/13 20:32:30;;;;;;;4.18;2.70;;;20.10;69.20;;;;;;12788887;23;20614;-86
2022/05/13 20:37:33;;;;;;;4.47;2.00;;;20.10;68.90;;;;;;12789004;23;20179;-87
2022/05/13 20:42:35;;;;;;;3.83;2.28;;;20.20;69.00;;;;;;12787715;23;20183;-87
2022/05/13 20:47:38;;;;;;;2.65;2.22;;;20.20;69.10;;;;;;12763806;23;20265;-87
2022/05/13 20:52:41;;;;;;;7.85;2.22;;;20.30;68.90;;;;;;12788339;23;20192;-87
2022/05/13 20:57:43;;;;;;;3.95;2.38;;;20.30;68.90;;;;;;12789756;23;20191;-87
2022/05/13 21:02:47;;;;;;;6.57;3.05;;;20.20;69.00;;;;;;12787718;23;20180;-87
2022/05/13 21:07:51;;;;;;;4.45;2.15;;;20.00;69.30;;;;;;12787431;23;20171;-87
2022/05/13 21:12:54;;;;;;;5.93;2.15;;;19.60;70.50;;;;;;12788570;23;20666;-87
2022/05/13 21:17:58;;;;;;;6.10;3.30;;;19.20;71.60;;;;;;12787674;23;20240;-87
2022/05/13 21:23:02;;;;;;;5.10;2.55;;;18.60;71.50;;;;;;12787295;23;20242;-87
2022/05/13 21:28:04;;;;;;;5.43;2.97;;;18.20;73.70;;;;;;12791623;23;20239;-88
2022/05/13 21:38:29;;;;;;;4.25;2.50;;;17.60;76.10;;;;;;12788401;23;20180;-87
2022/05/13 21:43:32;;;;;;;8.55;3.42;;;17.50;76.90;;;;;;12789639;23;20187;-87
2022/05/13 21:48:34;;;;;;;4.80;2.60;;;16.80;78.50;;;;;;12787806;23;20207;-87
2022/05/13 21:53:36;;;;;;;12.35;2.90;;;15.90;82.70;;;;;;12788013;23;20199;-87
2022/05/13 21:58:39;;;;;;;9.63;3.33;;;15.30;83.40;;;;;;12789973;23;20167;-87
2022/05/13 22:03:41;;;;;;;5.30;3.80;;;15.40;88.00;;;;;;12792043;23;20215;-87
2022/05/13 22:08:44;;;;;;;3.97;2.50;;;15.20;87.80;;;;;;12790354;23;20639;-86
2022/05/13 22:13:47;;;;;;;5.55;2.92;;;15.60;90.00;;;;;;12791328;23;20195;-88
2022/05/13 22:18:50;;;;;;;4.15;2.20;;;14.60;91.50;;;;;;12789559;23;20191;-88
2022/05/13 22:23:54;;;;;;;7.55;3.40;;;15.00;92.60;;;;;;12793005;23;20168;-88
2022/05/13 22:28:56;;;;;;;5.40;2.92;;;15.50;91.20;;;;;;12793668;23;20523;-88
2022/05/13 22:33:59;;;;;;;12.60;4.15;;;15.70;90.10;;;;;;12835550;23;20191;-89
2022/05/13 22:39:02;;;;;;;6.72;2.88;;;15.50;90.30;;;;;;12818760;23;20168;-88
2022/05/13 22:44:04;;;;;;;5.55;3.42;;;15.40;90.80;;;;;;12792728;23;20242;-88
2022/05/13 22:49:06;;;;;;;5.63;2.72;;;15.40;90.80;;;;;;12795034;23;20200;-88
2022/05/13 22:54:09;;;;;;;5.60;2.80;;;15.70;91.10;;;;;;12794749;23;20188;-88
2022/05/13 22:59:12;;;;;;;5.45;1.90;;;15.60;90.80;;;;;;12793006;23;20203;-89
2022/05/13 23:04:15;;;;;;;3.22;2.08;;;16.70;89.40;;;;;;12818131;23;20223;-88
2022/05/13 23:14:55;;;;;;;2.35;2.13;;;18.80;80.80;;;;;;12605436;23;20545;-88
2022/05/13 23:19:58;;;;;;;2.75;1.90;;;19.70;77.40;;;;;;12580367;23;20514;-89
2022/05/13 23:25:00;;;;;;;2.17;1.98;;;20.30;95.30;;;;;;12605038;23;20584;-88
2022/05/13 23:30:03;;;;;;;3.00;1.88;;;20.30;74.10;;;;;;12608111;23;20185;-88
2022/05/13 23:35:07;;;;;;;2.00;1.80;;;20.50;73.40;;;;;;12605569;23;20205;-88
2022/05/13 23:40:10;;;;;;;3.22;2.30;;;20.60;72.60;;;;;;12605066;23;20213;-88
2022/05/13 23:45:13;;;;;;;3.75;1.67;;;20.50;72.20;;;;;;12582389;23;20186;-89
2022/05/13 23:50:16;;;;;;;2.03;1.77;;;20.60;71.90;;;;;;12791681;23;20234;-88
